Time;durP1;ratioP1;P1;durP2;ratioP2;P2;SDS_P1;SDS_P2;PMS_P1;PMS_P2;Temp;Humidity;BMP_temperature;BMP_pressure;BME280_temperature;BME280_humidity;BME280_pressure;Samples;Min_cycle;Max_cycle;Signal;HPM_P1;HPM_P2
2021/03/03 05:54:19;;;;;;;32.08;25.83;;;;;;;;;;5010321;28;20530;-89
2021/03/03 05:56:46;;;;;;;31.98;24.52;;;;;;;;;;5004818;28;20975;-85
2021/03/03 05:59:13;;;;;;;31.83;24.52;;;;;;;;;;5002636;28;20395;-87
2021/03/03 06:01:40;;;;;;;30.25;23.85;;;;;;;;;;5003685;28;20395;-86
2021/03/03 06:04:06;;;;;;;32.90;25.88;;;;;;;;;;4996124;28;20747;-85
2021/03/03 06:06:33;;;;;;;36.83;26.40;;;;;;;;;;4998625;28;20403;-85
2021/03/03 06:08:59;;;;;;;37.03;25.02;;;;;;;;;;5003765;28;20390;-84
2021/03/03 06:11:25;;;;;;;31.55;24.13;;;;;;;;;;5002849;28;20445;-86
2021/03/03 06:13:52;;;;;;;34.60;25.98;;;;;;;;;;5001900;28;20885;-85
2021/03/03 06:16:21;;;;;;;29.95;23.45;;;;;;;;;;5006281;28;20439;-83
2021/03/03 06:18:48;;;;;;;34.30;25.23;;;;;;;;;;5002584;28;20383;-83
2021/03/03 06:21:24;;;;;;;35.00;24.20;;;;;;;;;;4997579;28;20463;-85
2021/03/03 06:23:59;;;;;;;35.08;25.30;;;;;;;;;;5001413;28;20446;-85
2021/03/03 06:26:25;;;;;;;33.47;24.33;;;;;;;;;;5001599;28;20388;-86
2021/03/03 06:28:54;;;;;;;31.60;26.17;;;;;;;;;;5001815;28;20495;-81
2021/03/03 06:31:23;;;;;;;33.85;26.58;;;;;;;;;;4999423;28;20378;-87
2021/03/03 06:33:53;;;;;;;32.80;24.83;;;;;;;;;;5001189;28;20779;-85
2021/03/03 06:36:22;;;;;;;32.20;24.90;;;;;;;;;;4999505;28;20435;-88
2021/03/03 06:38:48;;;;;;;30.30;24.30;;;;;;;;;;4998591;28;20381;-82
2021/03/03 06:41:14;;;;;;;30.60;24.73;;;;;;;;;;4999121;28;20365;-85
2021/03/03 06:43:54;;;;;;;34.25;25.92;;;;;;;;;;4998402;28;20367;-84
2021/03/03 06:46:20;;;;;;;30.73;25.08;;;;;;;;;;5000112;28;20469;-82
2021/03/03 06:48:46;;;;;;;33.00;26.17;;;;;;;;;;4997742;28;20455;-89
2021/03/03 06:51:21;;;;;;;42.20;27.93;;;;;;;;;;5000682;28;20370;-84
2021/03/03 06:53:48;;;;;;;37.53;28.45;;;;;;;;;;5000386;28;20416;-87
2021/03/03 06:56:13;;;;;;;28.45;23.08;;;;;;;;;;5000436;28;20467;-84
2021/03/03 06:58:39;;;;;;;82.93;34.70;;;;;;;;;;5000035;28;20410;-83
2021/03/03 07:01:05;;;;;;;34.88;26.40;;;;;;;;;;5000365;28;20384;-85
2021/03/03 07:03:35;;;;;;;36.70;28.33;;;;;;;;;;4998455;28;20369;-86
2021/03/03 07:06:02;;;;;;;43.15;30.55;;;;;;;;;;5001888;28;20509;-87
2021/03/03 07:08:28;;;;;;;65.00;35.80;;;;;;;;;;5004821;28;20388;-88
2021/03/03 07:10:54;;;;;;;39.38;31.73;;;;;;;;;;5020489;28;20382;-90
2021/03/03 07:13:35;;;;;;;42.42;31.50;;;;;;;;;;5007742;28;20419;-91
2021/03/03 07:16:10;;;;;;;35.83;29.33;;;;;;;;;;5019703;28;20408;-86
2021/03/03 07:18:39;;;;;;;30.77;25.58;;;;;;;;;;5002884;28;20383;-87
2021/03/03 07:21:07;;;;;;;34.92;27.90;;;;;;;;;;5004323;28;20752;-91
2021/03/03 07:23:59;;;;;;;32.80;25.80;;;;;;;;;;5006107;28;20375;-89
2021/03/03 07:26:26;;;;;;;35.10;27.40;;;;;;;;;;5019092;28;20379;-89
2021/03/03 07:28:52;;;;;;;34.42;27.20;;;;;;;;;;5002381;28;20435;-89
2021/03/03 07:31:19;;;;;;;31.60;25.95;;;;;;;;;;5003091;28;20478;-91
2021/03/03 07:33:46;;;;;;;31.77;25.50;;;;;;;;;;5004814;28;20391;-90
2021/03/03 07:36:14;;;;;;;34.50;27.60;;;;;;;;;;5003838;28;20397;-85
2021/03/03 07:38:44;;;;;;;35.25;27.38;;;;;;;;;;5003795;28;20405;-84
2021/03/03 07:41:13;;;;;;;34.35;27.83;;;;;;;;;;5005776;28;20387;-84
2021/03/03 07:44:05;;;;;;;36.58;28.58;;;;;;;;;;5003234;28;20388;-86
2021/03/03 07:46:32;;;;;;;34.58;26.63;;;;;;;;;;5005009;28;20403;-84
2021/03/03 07:49:00;;;;;;;33.85;26.55;;;;;;;;;;5005230;28;20374;-88
2021/03/03 07:51:26;;;;;;;39.47;30.73;;;;;;;;;;5007051;28;20418;-88
2021/03/03 07:53:53;;;;;;;38.22;30.45;;;;;;;;;;5003313;28;20453;-86
2021/03/03 07:56:24;;;;;;;36.15;29.27;;;;;;;;;;5008786;28;20394;-88
2021/03/03 07:58:50;;;;;;;32.92;27.75;;;;;;;;;;5005809;28;20397;-89
2021/03/03 08:01:17;;;;;;;44.38;32.92;;;;;;;;;;5006075;28;20833;-91
2021/03/03 08:03:50;;;;;;;44.78;34.20;;;;;;;;;;5005046;28;20441;-84
2021/03/03 08:06:25;;;;;;;44.70;33.28;;;;;;;;;;5018321;28;20822;-84
2021/03/03 08:09:08;;;;;;;45.63;36.33;;;;;;;;;;5005392;28;20381;-87
2021/03/03 08:11:35;;;;;;;45.50;36.30;;;;;;;;;;5019546;28;20429;-92
2021/03/03 08:14:01;;;;;;;45.45;36.42;;;;;;;;;;5011220;28;20430;-88
2021/03/03 08:16:27;;;;;;;42.17;33.60;;;;;;;;;;5002552;28;20400;-86
2021/03/03 08:18:57;;;;;;;42.20;34.45;;;;;;;;;;5010117;28;20393;-86
2021/03/03 08:21:23;;;;;;;47.38;35.97;;;;;;;;;;5001016;28;20418;-87
2021/03/03 08:23:53;;;;;;;47.20;35.70;;;;;;;;;;5007012;28;20401;-86
2021/03/03 08:26:19;;;;;;;46.00;36.42;;;;;;;;;;5003671;28;20379;-89
2021/03/03 08:28:49;;;;;;;44.23;33.90;;;;;;;;;;5004762;28;20492;-88
2021/03/03 08:31:20;;;;;;;49.58;37.05;;;;;;;;;;5004615;28;20428;-88
2021/03/03 08:33:50;;;;;;;40.97;33.17;;;;;;;;;;5006056;28;20394;-86
2021/03/03 08:36:18;;;;;;;40.60;32.85;;;;;;;;;;5001777;28;20369;-88
2021/03/03 08:39:10;;;;;;;41.67;33.47;;;;;;;;;;5003029;28;20398;-85
2021/03/03 08:41:37;;;;;;;40.38;32.47;;;;;;;;;;5013308;28;21245;-90
2021/03/03 08:44:06;;;;;;;40.25;32.35;;;;;;;;;;5007716;28;20393;-88
2021/03/03 08:46:37;;;;;;;42.50;34.42;;;;;;;;;;5004328;28;20387;-90
2021/03/03 08:49:03;;;;;;;39.72;32.50;;;;;;;;;;5002204;28;20882;-91
2021/03/03 08:51:28;;;;;;;40.45;33.58;;;;;;;;;;5004963;28;20383;-91
2021/03/03 08:53:58;;;;;;;44.65;36.17;;;;;;;;;;5002110;28;20399;-89
2021/03/03 08:56:43;;;;;;;46.28;37.08;;;;;;;;;;5004735;28;20377;-88
2021/03/03 08:59:28;;;;;;;47.63;38.88;;;;;;;;;;5019829;28;20855;-90
2021/03/03 09:01:55;;;;;;;49.42;39.08;;;;;;;;;;5007355;28;20407;-86
2021/03/03 09:04:24;;;;;;;48.90;38.55;;;;;;;;;;5001245;28;21178;-86
2021/03/03 09:06:51;;;;;;;50.75;40.25;;;;;;;;;;5004050;28;20386;-85
2021/03/03 09:09:18;;;;;;;47.35;37.30;;;;;;;;;;5003325;28;20420;-88
2021/03/03 09:11:44;;;;;;;48.37;38.43;;;;;;;;;;5003711;28;20418;-86
2021/03/03 09:14:11;;;;;;;46.95;38.85;;;;;;;;;;5002566;28;20421;-88
2021/03/03 09:16:52;;;;;;;49.88;39.50;;;;;;;;;;5005713;28;20383;-87
2021/03/03 09:19:18;;;;;;;51.28;39.65;;;;;;;;;;5017826;28;20475;-87
2021/03/03 09:21:44;;;;;;;48.90;39.08;;;;;;;;;;5003242;28;20395;-85
2021/03/03 09:24:11;;;;;;;49.03;38.35;;;;;;;;;;5019055;28;20400;-88
2021/03/03 09:26:40;;;;;;;53.38;41.85;;;;;;;;;;5013421;28;20780;-86
2021/03/03 09:29:06;;;;;;;53.42;41.47;;;;;;;;;;5014053;28;20396;-86
2021/03/03 09:31:33;;;;;;;53.35;41.00;;;;;;;;;;5012298;28;20389;-85
2021/03/03 09:33:59;;;;;;;53.03;41.65;;;;;;;;;;5002746;28;20785;-88
2021/03/03 09:36:26;;;;;;;49.60;39.05;;;;;;;;;;5005743;28;20387;-90
2021/03/03 09:39:00;;;;;;;48.90;39.65;;;;;;;;;;5003866;28;20379;-88
2021/03/03 09:41:26;;;;;;;50.35;39.75;;;;;;;;;;5010062;28;20415;-83
2021/03/03 09:44:04;;;;;;;53.25;40.30;;;;;;;;;;5010782;28;20869;-86
2021/03/03 09:46:52;;;;;;;48.78;37.75;;;;;;;;;;5008529;28;20386;-84
2021/03/03 09:49:29;;;;;;;49.75;38.45;;;;;;;;;;5006021;28;20683;-85
2021/03/03 09:51:55;;;;;;;53.22;40.08;;;;;;;;;;5004800;28;20974;-85
2021/03/03 09:54:30;;;;;;;52.72;40.22;;;;;;;;;;5002542;28;20432;-87
2021/03/03 09:57:01;;;;;;;53.35;41.25;;;;;;;;;;5021201;28;20747;-86
2021/03/03 09:59:32;;;;;;;50.03;40.30;;;;;;;;;;5004893;28;20865;-87
2021/03/03 10:02:01;;;;;;;51.70;42.05;;;;;;;;;;5005954;28;20388;-85
2021/03/03 10:04:27;;;;;;;52.20;41.83;;;;;;;;;;5005366;28;20491;-87
2021/03/03 10:06:54;;;;;;;51.55;41.45;;;;;;;;;;5005055;28;20383;-85
2021/03/03 10:09:21;;;;;;;51.38;41.53;;;;;;;;;;5006126;28;20387;-84
2021/03/03 10:11:47;;;;;;;48.17;39.63;;;;;;;;;;5004745;28;20400;-87
2021/03/03 10:14:14;;;;;;;51.93;40.93;;;;;;;;;;5003142;28;20454;-88
2021/03/03 10:16:57;;;;;;;51.88;40.90;;;;;;;;;;5005425;28;20379;-84
2021/03/03 10:19:26;;;;;;;49.10;41.25;;;;;;;;;;5004264;28;20734;-88
2021/03/03 10:21:52;;;;;;;50.75;40.97;;;;;;;;;;5003066;28;20391;-89
2021/03/03 10:24:20;;;;;;;49.72;39.92;;;;;;;;;;5000079;28;20395;-88
2021/03/03 10:26:46;;;;;;;46.95;38.42;;;;;;;;;;5003399;28;20387;-86
2021/03/03 10:29:33;;;;;;;49.05;39.75;;;;;;;;;;5003442;28;20454;-85
2021/03/03 10:32:08;;;;;;;47.42;40.42;;;;;;;;;;5002983;28;20445;-89
2021/03/03 10:34:34;;;;;;;50.63;40.78;;;;;;;;;;5005366;28;20395;-87
2021/03/03 10:37:00;;;;;;;49.97;40.88;;;;;;;;;;5003033;28;20533;-83
2021/03/03 10:39:28;;;;;;;48.55;40.45;;;;;;;;;;5003323;28;20434;-84
2021/03/03 10:42:04;;;;;;;50.08;40.33;;;;;;;;;;5001818;28;20974;-85
2021/03/03 10:44:49;;;;;;;48.83;39.80;;;;;;;;;;5001539;28;20371;-88
2021/03/03 10:47:15;;;;;;;50.23;39.90;;;;;;;;;;5000179;28;20433;-88
2021/03/03 10:49:41;;;;;;;50.90;39.72;;;;;;;;;;5002014;28;20421;-86
2021/03/03 10:52:20;;;;;;;49.55;40.75;;;;;;;;;;5005012;28;20415;-91
2021/03/03 10:54:46;;;;;;;50.50;40.67;;;;;;;;;;5017767;28;20405;-85
2021/03/03 10:57:12;;;;;;;49.00;39.83;;;;;;;;;;5005412;28;20384;-89
2021/03/03 10:59:42;;;;;;;52.58;40.55;;;;;;;;;;5004671;28;20403;-88
2021/03/03 11:02:10;;;;;;;50.13;39.45;;;;;;;;;;5001482;28;20399;-88
2021/03/03 11:04:44;;;;;;;49.28;40.40;;;;;;;;;;5004884;28;20379;-87
2021/03/03 11:07:10;;;;;;;48.20;40.03;;;;;;;;;;5002096;28;20389;-86
2021/03/03 11:09:36;;;;;;;48.03;38.90;;;;;;;;;;5003138;28;20466;-89
2021/03/03 11:12:03;;;;;;;48.47;39.05;;;;;;;;;;5001696;28;20403;-88
2021/03/03 11:14:54;;;;;;;46.33;37.78;;;;;;;;;;5002922;28;20479;-85
2021/03/03 11:17:23;;;;;;;48.43;39.53;;;;;;;;;;5010349;28;20472;-87
2021/03/03 11:19:49;;;;;;;49.27;39.60;;;;;;;;;;5002082;28;20379;-90
2021/03/03 11:22:15;;;;;;;48.47;39.88;;;;;;;;;;5005190;28;20995;-86
2021/03/03 11:24:41;;;;;;;49.10;40.63;;;;;;;;;;5008442;28;20454;-88
2021/03/03 11:27:07;;;;;;;50.60;39.50;;;;;;;;;;5000270;28;20741;-85
2021/03/03 11:29:44;;;;;;;52.30;42.03;;;;;;;;;;5000263;28;20396;-88
2021/03/03 11:32:10;;;;;;;47.97;39.80;;;;;;;;;;5002282;28;20468;-88
2021/03/03 11:34:36;;;;;;;49.40;39.58;;;;;;;;;;5003131;28;20387;-88
2021/03/03 11:37:02;;;;;;;50.97;42.08;;;;;;;;;;5001881;28;20466;-89
2021/03/03 11:39:28;;;;;;;50.17;41.17;;;;;;;;;;4999595;28;20376;-89
2021/03/03 11:41:54;;;;;;;50.28;40.22;;;;;;;;;;4998167;28;20747;-87
2021/03/03 11:44:23;;;;;;;47.42;39.72;;;;;;;;;;4999178;28;20435;-90
2021/03/03 11:46:49;;;;;;;48.10;38.90;;;;;;;;;;4998936;28;20433;-85
2021/03/03 11:49:15;;;;;;;45.38;37.55;;;;;;;;;;5004147;28;20474;-87
2021/03/03 11:51:53;;;;;;;41.80;33.97;;;;;;;;;;4999786;28;20399;-87
2021/03/03 11:54:20;;;;;;;46.22;36.78;;;;;;;;;;5002685;28;20444;-89
2021/03/03 11:57:10;;;;;;;42.45;34.05;;;;;;;;;;5001465;28;20393;-90
2021/03/03 11:59:36;;;;;;;43.50;35.40;;;;;;;;;;4998466;28;20474;-86
2021/03/03 12:02:04;;;;;;;42.95;34.65;;;;;;;;;;5002480;28;20381;-87
2021/03/03 12:04:30;;;;;;;42.53;34.43;;;;;;;;;;5004218;28;20418;-89
2021/03/03 12:06:56;;;;;;;45.70;34.67;;;;;;;;;;5002333;28;20392;-85
2021/03/03 12:09:25;;;;;;;38.67;32.43;;;;;;;;;;5005322;28;20390;-89
2021/03/03 12:11:56;;;;;;;40.57;33.30;;;;;;;;;;5004608;28;20419;-88
2021/03/03 12:14:22;;;;;;;41.95;31.83;;;;;;;;;;5005477;28;20393;-90
2021/03/03 12:16:48;;;;;;;39.35;31.20;;;;;;;;;;5004873;28;20388;-88
2021/03/03 12:19:14;;;;;;;35.85;28.20;;;;;;;;;;5002660;28;20762;-87
2021/03/03 12:21:40;;;;;;;36.90;29.10;;;;;;;;;;5004384;28;20438;-90
2021/03/03 12:24:06;;;;;;;33.63;26.40;;;;;;;;;;5005805;28;20911;-89
2021/03/03 12:26:32;;;;;;;34.15;27.73;;;;;;;;;;5006098;28;20375;-87
2021/03/03 12:28:58;;;;;;;36.03;27.65;;;;;;;;;;5005711;28;20390;-87
2021/03/03 12:31:43;;;;;;;36.47;27.73;;;;;;;;;;5005205;28;20375;-89
2021/03/03 12:34:09;;;;;;;32.15;25.73;;;;;;;;;;5003554;28;20393;-89
2021/03/03 12:36:35;;;;;;;32.03;25.73;;;;;;;;;;5002671;28;20380;-92
2021/03/03 12:39:05;;;;;;;34.90;27.35;;;;;;;;;;5007668;28;20444;-88
2021/03/03 12:41:32;;;;;;;33.35;27.25;;;;;;;;;;5006982;28;20458;-90
2021/03/03 12:44:01;;;;;;;31.05;25.45;;;;;;;;;;5017016;28;20870;-89
2021/03/03 12:46:27;;;;;;;30.70;24.95;;;;;;;;;;5006994;28;20399;-88
2021/03/03 12:48:55;;;;;;;31.92;25.52;;;;;;;;;;5009444;28;20387;-90
2021/03/03 12:51:24;;;;;;;32.28;24.15;;;;;;;;;;5006743;28;20399;-87
2021/03/03 12:53:50;;;;;;;30.45;24.13;;;;;;;;;;5013845;28;20407;-88
2021/03/03 12:56:17;;;;;;;30.27;24.33;;;;;;;;;;5009489;28;20385;-86
2021/03/03 12:58:44;;;;;;;29.42;23.65;;;;;;;;;;5004240;28;20737;-87
2021/03/03 13:01:10;;;;;;;34.25;25.45;;;;;;;;;;5008848;28;20392;-86
2021/03/03 13:03:36;;;;;;;29.85;23.35;;;;;;;;;;5005826;28;20391;-87
2021/03/03 13:06:06;;;;;;;29.13;23.40;;;;;;;;;;5009179;28;20386;-88
2021/03/03 13:08:32;;;;;;;28.67;23.17;;;;;;;;;;5007081;28;20524;-87
2021/03/03 13:10:58;;;;;;;30.77;21.58;;;;;;;;;;5012557;28;20387;-85
2021/03/03 13:13:24;;;;;;;29.13;21.95;;;;;;;;;;5010285;28;20961;-93
2021/03/03 13:15:52;;;;;;;27.63;21.83;;;;;;;;;;5008973;28;20390;-87
2021/03/03 13:18:19;;;;;;;25.30;20.15;;;;;;;;;;5008034;28;20428;-90
2021/03/03 13:20:48;;;;;;;28.15;20.20;;;;;;;;;;5009803;28;20384;-91
2021/03/03 13:23:14;;;;;;;25.67;19.30;;;;;;;;;;5002843;28;20380;-91
2021/03/03 13:25:40;;;;;;;24.00;18.87;;;;;;;;;;5006847;28;20391;-90
2021/03/03 13:28:06;;;;;;;25.20;19.67;;;;;;;;;;5010766;28;20422;-87
2021/03/03 13:30:32;;;;;;;23.63;18.50;;;;;;;;;;5004723;28;20415;-86
2021/03/03 13:32:58;;;;;;;26.73;18.73;;;;;;;;;;5013842;28;20406;-88
2021/03/03 13:35:25;;;;;;;24.30;18.42;;;;;;;;;;5008652;28;20745;-85
2021/03/03 13:37:51;;;;;;;23.08;17.63;;;;;;;;;;5009045;28;20387;-88
2021/03/03 13:40:18;;;;;;;22.45;17.50;;;;;;;;;;5007195;28;20837;-87
2021/03/03 13:42:44;;;;;;;22.88;17.65;;;;;;;;;;5006768;28;20459;-85
2021/03/03 13:45:13;;;;;;;21.50;17.73;;;;;;;;;;5004270;28;20418;-86
2021/03/03 13:47:41;;;;;;;24.88;18.65;;;;;;;;;;5014054;28;20396;-89
2021/03/03 13:50:08;;;;;;;23.10;17.40;;;;;;;;;;5000623;28;20466;-88
2021/03/03 13:52:34;;;;;;;24.23;18.23;;;;;;;;;;5002895;28;20409;-88
2021/03/03 13:55:00;;;;;;;24.00;17.50;;;;;;;;;;5001594;28;20395;-88
2021/03/03 13:57:26;;;;;;;23.02;17.67;;;;;;;;;;5000909;28;20383;-88
2021/03/03 13:59:52;;;;;;;22.30;18.00;;;;;;;;;;5002101;28;20375;-89
2021/03/03 14:02:18;;;;;;;22.50;18.17;;;;;;;;;;5000813;28;20384;-89
2021/03/03 14:04:44;;;;;;;23.42;18.33;;;;;;;;;;5002334;28;20865;-87
2021/03/03 14:07:10;;;;;;;20.85;17.23;;;;;;;;;;5002755;28;20859;-85
2021/03/03 14:09:36;;;;;;;23.40;17.65;;;;;;;;;;5003506;28;20375;-85
2021/03/03 14:12:02;;;;;;;24.00;18.77;;;;;;;;;;5003714;28;20404;-88
2021/03/03 14:14:28;;;;;;;21.17;16.95;;;;;;;;;;5004963;28;20445;-88
2021/03/03 14:16:54;;;;;;;22.10;16.80;;;;;;;;;;5002412;28;20384;-87
2021/03/03 14:19:23;;;;;;;24.33;16.87;;;;;;;;;;5000346;28;20423;-87
2021/03/03 14:21:49;;;;;;;22.30;17.27;;;;;;;;;;5000227;28;20482;-86
2021/03/03 14:24:15;;;;;;;20.25;16.38;;;;;;;;;;5002812;28;20379;-88
2021/03/03 14:26:41;;;;;;;24.00;17.38;;;;;;;;;;4999502;28;20373;-88
2021/03/03 14:29:07;;;;;;;23.08;16.75;;;;;;;;;;5000368;28;20912;-85
2021/03/03 14:31:33;;;;;;;23.50;16.63;;;;;;;;;;5000727;28;20373;-87
2021/03/03 14:33:59;;;;;;;20.73;16.20;;;;;;;;;;5000580;28;20416;-87
2021/03/03 14:36:27;;;;;;;24.58;16.63;;;;;;;;;;5002588;28;20384;-89
2021/03/03 14:38:53;;;;;;;20.00;16.73;;;;;;;;;;4998883;28;20385;-89
2021/03/03 14:41:24;;;;;;;19.95;15.75;;;;;;;;;;5004820;28;20486;-87
2021/03/03 14:43:50;;;;;;;23.92;17.80;;;;;;;;;;5008766;28;20849;-83
2021/03/03 14:46:15;;;;;;;24.08;19.38;;;;;;;;;;5009324;28;20399;-86
2021/03/03 14:48:41;;;;;;;28.13;19.92;;;;;;;;;;5007435;28;20520;-85
2021/03/03 14:51:07;;;;;;;44.45;20.50;;;;;;;;;;5002520;28;20371;-86
2021/03/03 14:53:34;;;;;;;26.00;19.50;;;;;;;;;;5001141;28;20500;-87
2021/03/03 14:56:00;;;;;;;23.73;18.13;;;;;;;;;;5002724;28;20478;-90
2021/03/03 14:58:27;;;;;;;26.17;17.27;;;;;;;;;;5008141;28;20418;-88
2021/03/03 15:00:53;;;;;;;25.67;17.40;;;;;;;;;;5001451;28;20374;-89
2021/03/03 15:03:19;;;;;;;23.35;17.67;;;;;;;;;;5001856;28;20748;-89
2021/03/03 15:05:48;;;;;;;22.02;16.90;;;;;;;;;;4999215;28;20403;-87
2021/03/03 15:08:14;;;;;;;24.15;16.60;;;;;;;;;;5006246;28;20391;-86
2021/03/03 15:10:41;;;;;;;24.08;17.40;;;;;;;;;;5003406;28;20385;-91
2021/03/03 15:13:07;;;;;;;22.48;17.10;;;;;;;;;;5005631;28;20413;-86
2021/03/03 15:15:41;;;;;;;25.05;17.17;;;;;;;;;;5000884;28;20383;-87
2021/03/03 15:18:08;;;;;;;27.27;18.45;;;;;;;;;;5017590;28;20745;-86
2021/03/03 15:20:34;;;;;;;23.53;16.80;;;;;;;;;;5005242;28;20395;-90
2021/03/03 15:23:02;;;;;;;22.00;17.93;;;;;;;;;;5004633;28;20390;-86
2021/03/03 15:25:28;;;;;;;24.27;18.57;;;;;;;;;;5009986;28;20391;-90
2021/03/03 15:27:54;;;;;;;23.40;17.40;;;;;;;;;;5006207;28;20445;-86
2021/03/03 15:30:20;;;;;;;23.08;17.17;;;;;;;;;;5005449;28;20399;-86
2021/03/03 15:32:46;;;;;;;25.40;18.13;;;;;;;;;;5007493;28;20406;-84
2021/03/03 15:35:12;;;;;;;24.30;17.93;;;;;;;;;;5021364;28;20390;-87
2021/03/03 15:37:38;;;;;;;23.35;18.67;;;;;;;;;;5185244;23;20504;-85
2021/03/03 15:40:05;;;;;;;23.83;17.47;;;;;;;;;;5027557;28;20468;-84
2021/03/03 15:42:32;;;;;;;29.37;19.10;;;;;;;;;;5030687;28;20478;-87
2021/03/03 15:44:58;;;;;;;26.33;19.15;;;;;;;;;;5031308;28;20435;-82
2021/03/03 15:47:24;;;;;;;26.02;19.45;;;;;;;;;;5032803;28;20407;-88
2021/03/03 15:49:50;;;;;;;25.20;19.23;;;;;;;;;;5031924;28;20851;-88
2021/03/03 15:52:16;;;;;;;23.83;18.77;;;;;;;;;;5032095;28;20409;-87
2021/03/03 15:54:42;;;;;;;27.33;19.67;;;;;;;;;;5033251;28;20429;-86
2021/03/03 15:57:08;;;;;;;28.00;19.43;;;;;;;;;;5033122;28;20843;-84
2021/03/03 15:59:35;;;;;;;28.67;19.33;;;;;;;;;;5032807;28;20456;-86
2021/03/03 16:02:01;;;;;;;26.60;19.55;;;;;;;;;;5033320;28;20440;-86
2021/03/03 16:04:27;;;;;;;25.40;18.75;;;;;;;;;;5032259;28;20432;-86
2021/03/03 16:06:54;;;;;;;28.15;18.70;;;;;;;;;;5032462;28;20377;-89
2021/03/03 16:09:20;;;;;;;26.90;18.52;;;;;;;;;;5034099;28;20390;-87
2021/03/03 16:11:46;;;;;;;24.50;17.42;;;;;;;;;;5033059;28;20472;-86
2021/03/03 16:14:12;;;;;;;25.65;18.27;;;;;;;;;;5032297;28;20373;-89
2021/03/03 16:16:41;;;;;;;23.92;18.05;;;;;;;;;;5033213;28;20919;-86
2021/03/03 16:19:07;;;;;;;25.88;16.75;;;;;;;;;;5032691;28;20428;-88
2021/03/03 16:21:33;;;;;;;24.83;18.10;;;;;;;;;;5033459;28;20398;-87
2021/03/03 16:23:59;;;;;;;26.27;17.90;;;;;;;;;;5031598;28;20391;-87
2021/03/03 16:26:26;;;;;;;23.23;17.65;;;;;;;;;;5031055;28;20365;-89
2021/03/03 16:28:54;;;;;;;24.40;18.20;;;;;;;;;;5032407;28;20486;-85
2021/03/03 16:31:21;;;;;;;23.58;17.17;;;;;;;;;;5033260;28;20401;-87
2021/03/03 16:33:47;;;;;;;25.85;19.02;;;;;;;;;;5033420;28;20540;-86
2021/03/03 16:36:14;;;;;;;21.83;17.63;;;;;;;;;;5031101;28;20389;-87
2021/03/03 16:38:41;;;;;;;25.77;18.30;;;;;;;;;;5031344;28;20385;-88
2021/03/03 16:41:07;;;;;;;27.33;19.25;;;;;;;;;;5031970;28;20520;-85
2021/03/03 16:43:33;;;;;;;30.02;19.40;;;;;;;;;;5031086;28;20744;-86
2021/03/03 16:46:01;;;;;;;28.85;20.08;;;;;;;;;;5032665;28;20492;-88
2021/03/03 16:48:27;;;;;;;30.63;19.63;;;;;;;;;;5031922;28;20974;-89
2021/03/03 16:50:53;;;;;;;31.40;20.40;;;;;;;;;;5031118;28;20396;-85
2021/03/03 16:53:19;;;;;;;26.88;19.73;;;;;;;;;;5032571;28;20405;-88
2021/03/03 16:55:45;;;;;;;27.20;20.13;;;;;;;;;;5032525;28;20461;-89
2021/03/03 16:58:11;;;;;;;28.73;19.63;;;;;;;;;;5033580;28;20386;-88
2021/03/03 17:00:38;;;;;;;24.27;19.67;;;;;;;;;;5036649;28;20408;-87
2021/03/03 17:03:08;;;;;;;26.20;20.48;;;;;;;;;;5037674;28;20493;-84
2021/03/03 17:05:39;;;;;;;26.85;20.17;;;;;;;;;;5034964;28;20389;-87
2021/03/03 17:08:06;;;;;;;27.85;20.48;;;;;;;;;;5037731;28;20383;-86
2021/03/03 17:10:32;;;;;;;32.47;20.43;;;;;;;;;;5036267;28;20378;-85
2021/03/03 17:12:59;;;;;;;31.92;21.80;;;;;;;;;;5036364;28;20400;-87
2021/03/03 17:15:25;;;;;;;33.77;23.20;;;;;;;;;;5031610;28;20461;-85
2021/03/03 17:17:51;;;;;;;32.30;23.60;;;;;;;;;;5032322;28;20469;-85
2021/03/03 17:20:17;;;;;;;31.83;23.13;;;;;;;;;;5029409;28;20389;-86
2021/03/03 17:22:43;;;;;;;33.10;24.48;;;;;;;;;;5034854;28;20373;-86
2021/03/03 17:25:10;;;;;;;30.88;22.65;;;;;;;;;;5041640;28;20408;-88
2021/03/03 17:27:37;;;;;;;28.75;23.08;;;;;;;;;;5035959;28;20377;-86
2021/03/03 17:30:05;;;;;;;30.98;24.00;;;;;;;;;;5030235;28;20447;-86
2021/03/03 17:32:31;;;;;;;27.70;21.95;;;;;;;;;;5031303;28;20783;-84
2021/03/03 17:34:57;;;;;;;34.65;24.55;;;;;;;;;;5032004;28;20387;-85
2021/03/03 17:37:23;;;;;;;32.65;25.70;;;;;;;;;;5034692;28;20369;-86
2021/03/03 17:39:49;;;;;;;28.92;22.15;;;;;;;;;;5033928;28;20428;-86
2021/03/03 17:42:16;;;;;;;29.65;23.75;;;;;;;;;;5033922;28;20394;-86
2021/03/03 17:44:42;;;;;;;28.20;23.75;;;;;;;;;;5029159;28;20477;-89
2021/03/03 17:47:08;;;;;;;30.10;25.10;;;;;;;;;;5029385;28;20390;-86
2021/03/03 17:49:34;;;;;;;28.83;23.13;;;;;;;;;;5031233;28;20844;-86
2021/03/03 17:52:00;;;;;;;35.88;26.95;;;;;;;;;;5030825;28;20460;-86
2021/03/03 17:54:27;;;;;;;32.10;24.10;;;;;;;;;;5030484;28;20408;-90
2021/03/03 17:56:53;;;;;;;32.55;24.60;;;;;;;;;;5029963;28;20485;-89
2021/03/03 17:59:18;;;;;;;29.83;24.08;;;;;;;;;;5030482;28;20491;-85
2021/03/03 18:01:45;;;;;;;30.08;24.13;;;;;;;;;;5029811;28;20382;-86
2021/03/03 18:04:13;;;;;;;37.38;26.20;;;;;;;;;;5027218;28;20385;-85
2021/03/03 18:06:39;;;;;;;31.13;23.90;;;;;;;;;;5030594;28;20751;-86
2021/03/03 18:09:06;;;;;;;30.13;23.05;;;;;;;;;;5027571;28;20768;-86
2021/03/03 18:11:32;;;;;;;31.90;24.40;;;;;;;;;;5026125;28;20829;-85
2021/03/03 18:13:58;;;;;;;33.22;25.10;;;;;;;;;;5029777;28;20982;-85
2021/03/03 18:16:24;;;;;;;30.70;24.63;;;;;;;;;;5028487;28;20459;-84
2021/03/03 18:18:51;;;;;;;30.23;23.98;;;;;;;;;;5025834;28;20385;-88
2021/03/03 18:21:17;;;;;;;32.88;24.80;;;;;;;;;;5030343;28;20387;-86
2021/03/03 18:23:43;;;;;;;32.88;24.70;;;;;;;;;;5029639;28;20378;-86
2021/03/03 18:26:09;;;;;;;31.83;24.58;;;;;;;;;;5030725;28;20365;-85
2021/03/03 18:28:35;;;;;;;31.10;24.07;;;;;;;;;;5030541;28;20389;-86
2021/03/03 18:31:01;;;;;;;31.58;24.52;;;;;;;;;;5028870;28;20381;-85
2021/03/03 18:33:27;;;;;;;31.70;24.80;;;;;;;;;;5029619;28;20405;-85
2021/03/03 18:35:54;;;;;;;34.83;25.13;;;;;;;;;;5029654;28;20446;-86
2021/03/03 18:38:20;;;;;;;32.55;24.95;;;;;;;;;;5026651;28;20393;-86
2021/03/03 18:40:47;;;;;;;31.00;24.97;;;;;;;;;;5027762;28;20416;-87
2021/03/03 18:43:14;;;;;;;30.52;24.38;;;;;;;;;;5027555;28;20419;-86
2021/03/03 18:45:40;;;;;;;29.67;23.55;;;;;;;;;;5028203;28;20376;-86
2021/03/03 18:48:06;;;;;;;30.83;25.83;;;;;;;;;;5028012;28;20407;-86
2021/03/03 18:50:33;;;;;;;33.60;26.85;;;;;;;;;;5027755;28;20394;-86
2021/03/03 18:53:00;;;;;;;32.05;26.67;;;;;;;;;;5030444;28;20427;-85
2021/03/03 18:55:26;;;;;;;37.17;27.83;;;;;;;;;;5013274;28;20425;-88
2021/03/03 18:57:53;;;;;;;36.55;27.70;;;;;;;;;;5009472;28;20381;-85
2021/03/03 19:00:19;;;;;;;35.38;28.23;;;;;;;;;;5019112;28;21020;-87
2021/03/03 19:02:46;;;;;;;32.42;25.77;;;;;;;;;;5029154;28;20416;-86
2021/03/03 19:05:12;;;;;;;35.67;26.17;;;;;;;;;;5028728;28;20385;-85
2021/03/03 19:07:39;;;;;;;34.13;25.63;;;;;;;;;;5031943;28;20794;-85
2021/03/03 19:10:08;;;;;;;33.92;25.70;;;;;;;;;;5023774;28;20907;-85
2021/03/03 19:12:35;;;;;;;36.73;26.03;;;;;;;;;;5032192;28;20476;-87
2021/03/03 19:15:01;;;;;;;34.47;25.67;;;;;;;;;;5032762;28;20397;-86
2021/03/03 19:17:28;;;;;;;31.63;25.25;;;;;;;;;;5031638;28;20392;-85
2021/03/03 19:19:55;;;;;;;27.73;23.10;;;;;;;;;;5020601;28;20383;-84
2021/03/03 19:22:22;;;;;;;30.77;24.02;;;;;;;;;;5032728;28;20469;-87
2021/03/03 19:24:48;;;;;;;32.55;22.65;;;;;;;;;;5034267;28;20377;-86
2021/03/03 19:27:14;;;;;;;28.48;22.33;;;;;;;;;;5027115;28;20387;-87
2021/03/03 19:29:40;;;;;;;28.35;21.50;;;;;;;;;;5013999;28;20477;-85
2021/03/03 19:32:07;;;;;;;27.10;20.80;;;;;;;;;;5018562;28;20476;-84
2021/03/03 19:34:33;;;;;;;31.77;21.63;;;;;;;;;;5034596;28;20875;-86
2021/03/03 19:36:59;;;;;;;30.60;21.45;;;;;;;;;;5031476;28;20468;-87
2021/03/03 19:39:26;;;;;;;27.85;20.55;;;;;;;;;;5013445;28;20391;-89
2021/03/03 19:41:52;;;;;;;28.93;21.10;;;;;;;;;;5019995;28;20395;-88
2021/03/03 19:44:18;;;;;;;27.98;20.80;;;;;;;;;;5027317;28;20391;-87
2021/03/03 19:46:53;;;;;;;29.88;20.65;;;;;;;;;;5015024;28;20883;-89
2021/03/03 19:49:21;;;;;;;30.23;21.92;;;;;;;;;;5025507;28;20871;-87
2021/03/03 19:51:47;;;;;;;29.10;20.73;;;;;;;;;;5027351;28;20389;-85
2021/03/03 19:54:14;;;;;;;25.73;20.05;;;;;;;;;;5023880;28;20498;-85
2021/03/03 19:56:41;;;;;;;33.20;21.25;;;;;;;;;;5016710;28;20384;-84
2021/03/03 19:59:07;;;;;;;27.67;20.23;;;;;;;;;;5017213;28;20399;-85
2021/03/03 20:01:33;;;;;;;27.63;20.83;;;;;;;;;;5023735;28;20396;-84
2021/03/03 20:03:59;;;;;;;27.45;21.58;;;;;;;;;;5026302;28;20800;-85
2021/03/03 20:06:29;;;;;;;27.45;21.30;;;;;;;;;;5015766;28;20393;-86
2021/03/03 20:08:55;;;;;;;31.63;21.40;;;;;;;;;;5019753;28;20892;-85
2021/03/03 20:11:21;;;;;;;29.67;21.07;;;;;;;;;;5019172;28;20911;-86
2021/03/03 20:13:54;;;;;;;32.38;21.55;;;;;;;;;;5028448;28;20413;-84